createdAt,value
2018-08-04T00:03:44.053Z,23.90
2018-08-04T00:06:11.338Z,23.80
2018-08-04T00:08:38.633Z,23.70
2018-08-04T00:11:05.894Z,23.60
2018-08-04T00:13:33.146Z,23.60
2018-08-04T00:16:00.384Z,23.50
2018-08-04T00:18:27.638Z,23.60
2018-08-04T00:20:54.869Z,23.60
2018-08-04T00:23:22.158Z,23.60
2018-08-04T00:25:49.460Z,23.60
2018-08-04T00:28:16.610Z,23.60
2018-08-04T00:30:43.833Z,23.60
2018-08-04T00:33:11.088Z,23.60
2018-08-04T00:35:38.317Z,23.60
2018-08-04T00:38:05.598Z,23.60
2018-08-04T00:40:32.887Z,23.60
2018-08-04T00:43:00.137Z,23.70
2018-08-04T00:45:27.437Z,23.70
2018-08-04T00:47:54.710Z,23.60
2018-08-04T00:52:49.243Z,23.60
2018-08-04T00:55:16.528Z,23.60
2018-08-04T00:57:43.872Z,23.70
2018-08-04T01:00:11.174Z,23.60
2018-08-04T01:02:38.443Z,23.60
2018-08-04T01:05:05.755Z,23.50
2018-08-04T01:07:33.099Z,23.40
2018-08-04T01:10:01.455Z,23.30
2018-08-04T01:12:28.742Z,23.30
2018-08-04T01:14:55.993Z,23.20
2018-08-04T01:17:23.259Z,23.20
2018-08-04T01:19:50.498Z,23.20
2018-08-04T01:22:17.778Z,23.20
2018-08-04T01:24:45.022Z,23.20
2018-08-04T01:27:12.307Z,23.20
2018-08-04T01:29:39.635Z,23.20
2018-08-04T01:32:06.941Z,23.20
2018-08-04T01:34:34.186Z,23.20
2018-08-04T01:37:01.486Z,23.10
2018-08-04T01:39:28.850Z,23.20
2018-08-04T01:41:56.142Z,23.10
2018-08-04T01:44:23.434Z,23.10
2018-08-04T01:46:50.738Z,23.10
2018-08-04T01:49:18.030Z,23.10
2018-08-04T01:51:45.297Z,23.00
2018-08-04T01:54:12.630Z,23.00
2018-08-04T01:56:39.887Z,23.00
2018-08-04T01:59:07.213Z,22.90
2018-08-04T02:01:34.603Z,22.80
2018-08-04T02:04:01.873Z,22.70
2018-08-04T02:06:29.137Z,22.70
2018-08-04T02:08:56.593Z,22.60
2018-08-04T02:11:23.925Z,22.60
2018-08-04T02:13:51.286Z,22.60
2018-08-04T02:16:18.614Z,22.60
2018-08-04T02:18:45.896Z,22.60
2018-08-04T02:23:40.455Z,22.70
2018-08-04T02:26:07.791Z,22.70
2018-08-04T02:28:35.177Z,22.60
2018-08-04T02:31:02.475Z,22.50
2018-08-04T02:33:29.816Z,22.50
2018-08-04T02:35:57.148Z,22.50
2018-08-04T02:40:51.778Z,22.50
2018-08-04T02:45:46.414Z,22.50
2018-08-04T02:50:40.972Z,22.50
2018-08-04T02:53:08.215Z,22.50
2018-08-04T02:55:35.582Z,22.50
2018-08-04T02:58:02.914Z,22.70
2018-08-04T03:00:30.224Z,22.40
2018-08-04T03:02:57.500Z,22.30
2018-08-04T03:05:24.835Z,22.40
2018-08-04T03:07:52.079Z,22.30
2018-08-04T03:10:19.393Z,22.30
2018-08-04T03:12:46.661Z,22.20
2018-08-04T03:15:13.934Z,22.20
2018-08-04T03:17:41.236Z,22.20
2018-08-04T03:20:08.891Z,22.10
2018-08-04T03:22:36.430Z,21.90
2018-08-04T03:27:31.024Z,21.80
2018-08-04T03:29:58.283Z,21.80
2018-08-04T03:32:25.550Z,21.70
2018-08-04T03:34:52.818Z,21.70
2018-08-04T03:37:24.232Z,21.70
2018-08-04T03:39:51.498Z,21.70
2018-08-04T03:42:18.866Z,21.70
2018-08-04T03:44:46.146Z,21.70
2018-08-04T03:47:13.527Z,21.70
2018-08-04T03:49:40.822Z,21.80
2018-08-04T03:52:08.175Z,21.80
2018-08-04T03:54:35.458Z,21.80
2018-08-04T03:57:02.906Z,21.80
2018-08-04T03:59:30.214Z,21.80
2018-08-04T04:01:57.557Z,21.70
2018-08-04T04:04:24.865Z,21.70
2018-08-04T04:06:52.223Z,21.70
2018-08-04T04:09:19.508Z,21.70
2018-08-04T04:11:46.810Z,21.70
2018-08-04T04:14:14.183Z,21.70
2018-08-04T04:16:41.490Z,21.70
2018-08-04T04:19:08.802Z,21.60
2018-08-04T04:21:36.137Z,21.70
2018-08-04T04:24:03.444Z,21.70
2018-08-04T04:26:30.772Z,21.80
2018-08-04T04:28:58.074Z,21.80
2018-08-04T04:31:25.403Z,21.70
2018-08-04T04:33:52.773Z,21.60
2018-08-04T04:36:20.063Z,21.50
2018-08-04T04:38:47.390Z,21.50
2018-08-04T04:43:41.997Z,21.50
2018-08-04T04:46:09.286Z,21.50
2018-08-04T04:51:03.873Z,21.50
2018-08-04T04:53:31.160Z,21.60
2018-08-04T04:55:58.510Z,21.70
2018-08-04T04:58:25.775Z,22.00
2018-08-04T05:00:53.043Z,23.00
2018-08-04T05:03:20.334Z,24.70
2018-08-04T05:05:47.592Z,25.90
2018-08-04T05:08:14.887Z,27.00
2018-08-04T05:10:42.186Z,27.60
2018-08-04T05:13:09.485Z,28.10
2018-08-04T05:15:36.791Z,29.00
2018-08-04T05:18:04.199Z,29.40
2018-08-04T05:20:31.599Z,29.30
2018-08-04T05:22:58.895Z,28.20
2018-08-04T05:25:26.166Z,27.20
2018-08-04T05:27:53.459Z,26.50
2018-08-04T05:30:20.729Z,26.30
2018-08-04T05:32:48.125Z,25.80
2018-08-04T05:35:15.437Z,25.50
2018-08-04T05:37:42.692Z,25.40
2018-08-04T05:40:09.990Z,25.10
2018-08-04T05:42:37.430Z,24.80
2018-08-04T05:45:06.058Z,24.70
2018-08-04T05:47:33.366Z,24.50
2018-08-04T05:50:00.711Z,24.40
2018-08-04T05:52:28.010Z,24.40
2018-08-04T05:54:55.382Z,24.40
2018-08-04T05:59:50.337Z,24.40
2018-08-04T06:02:17.627Z,24.40
2018-08-04T06:04:44.966Z,24.40
2018-08-04T06:07:12.275Z,24.40
2018-08-04T06:09:39.569Z,24.30
2018-08-04T06:12:06.906Z,24.30
2018-08-04T06:14:34.226Z,24.30
2018-08-04T06:17:01.526Z,24.30
2018-08-04T06:19:28.825Z,24.30
2018-08-04T06:21:56.220Z,24.40
2018-08-04T06:24:23.511Z,24.40
2018-08-04T06:26:50.834Z,24.50
2018-08-04T06:29:18.110Z,24.50
2018-08-04T06:34:12.709Z,24.60
2018-08-04T06:36:40.005Z,24.70
2018-08-04T06:39:07.580Z,24.70
2018-08-04T06:41:34.884Z,24.80
2018-08-04T06:44:02.203Z,24.90
2018-08-04T06:46:29.612Z,24.90
2018-08-04T06:48:56.898Z,25.10
2018-08-04T06:51:24.221Z,25.10
2018-08-04T06:56:18.871Z,25.20
2018-08-04T06:58:46.250Z,25.30
2018-08-04T07:01:13.581Z,25.30
2018-08-04T07:06:08.201Z,25.40
2018-08-04T07:08:35.674Z,25.60
2018-08-04T07:11:03.020Z,25.60
2018-08-04T07:13:30.341Z,25.70
2018-08-04T07:15:57.651Z,25.70
2018-08-04T07:18:24.957Z,25.80
2018-08-04T07:23:19.579Z,26.00
2018-08-04T07:25:46.894Z,26.10
2018-08-04T07:28:14.237Z,26.10
2018-08-04T07:30:41.590Z,26.20
2018-08-04T07:33:08.938Z,26.20
2018-08-04T07:35:36.258Z,26.30
2018-08-04T07:38:03.629Z,26.40
2018-08-04T07:40:31.031Z,26.50
2018-08-04T07:42:58.286Z,26.60
2018-08-04T07:45:25.623Z,26.60
2018-08-04T07:47:52.957Z,26.60
2018-08-04T07:50:20.272Z,26.70
2018-08-04T07:52:47.569Z,26.80
2018-08-04T07:55:14.897Z,26.80
2018-08-04T07:57:42.197Z,26.80
2018-08-04T08:00:09.747Z,26.80
2018-08-04T08:02:37.056Z,26.90
2018-08-04T08:05:04.739Z,27.00
2018-08-04T08:07:32.018Z,27.10
2018-08-04T08:09:59.324Z,27.20
2018-08-04T08:12:26.613Z,27.20
2018-08-04T08:14:53.921Z,27.30
2018-08-04T08:17:21.265Z,27.30
2018-08-04T08:19:48.608Z,27.50
2018-08-04T08:22:15.914Z,27.60
2018-08-04T08:24:43.252Z,27.60
2018-08-04T08:27:10.590Z,27.70
2018-08-04T08:29:37.995Z,27.80
2018-08-04T08:32:05.514Z,27.80
2018-08-04T08:34:32.843Z,27.90
2018-08-04T08:39:27.541Z,28.00
2018-08-04T08:41:54.919Z,28.10
2018-08-04T08:44:22.313Z,28.20
2018-08-04T08:49:16.952Z,28.30
2018-08-04T08:54:11.693Z,28.50
2018-08-04T08:56:38.803Z,28.70
2018-08-04T08:59:06.196Z,28.80
2018-08-04T09:01:33.502Z,28.90
2018-08-04T09:04:00.857Z,28.80
2018-08-04T09:06:28.169Z,28.90
2018-08-04T09:08:55.495Z,29.00
2018-08-04T09:11:22.787Z,29.10
2018-08-04T09:13:50.135Z,29.10
2018-08-04T09:16:17.426Z,29.20
2018-08-04T09:18:44.771Z,29.30
2018-08-04T09:21:12.066Z,29.30
2018-08-04T09:23:39.425Z,29.50
2018-08-04T09:26:06.726Z,29.70
2018-08-04T09:28:34.150Z,30.00
2018-08-04T09:31:01.497Z,30.10
2018-08-04T09:33:28.846Z,30.20
2018-08-04T09:35:56.159Z,30.30
2018-08-04T09:38:23.561Z,30.40
2018-08-04T09:40:50.821Z,30.50
2018-08-04T09:43:18.182Z,30.50
2018-08-04T09:45:45.431Z,30.50
2018-08-04T09:48:12.729Z,30.60
2018-08-04T09:50:40.022Z,30.70
2018-08-04T09:55:34.594Z,30.80
2018-08-04T09:58:01.918Z,30.80
2018-08-04T10:03:02.174Z,30.70
2018-08-04T10:05:29.569Z,30.80
2018-08-04T10:07:56.837Z,30.90
2018-08-04T10:10:24.143Z,30.90
2018-08-04T10:12:51.451Z,31.00
2018-08-04T10:15:18.754Z,31.10
2018-08-04T10:17:46.098Z,31.10
2018-08-04T10:22:40.794Z,31.20
2018-08-04T10:25:08.613Z,31.30
2018-08-04T10:27:36.017Z,31.40
2018-08-04T10:32:32.095Z,31.40
2018-08-04T10:37:26.602Z,31.50
2018-08-04T10:39:53.927Z,31.50
2018-08-04T10:42:21.298Z,31.60
2018-08-04T10:44:48.679Z,31.50
2018-08-04T10:47:15.994Z,31.50
2018-08-04T10:49:43.307Z,31.60
2018-08-04T10:52:10.630Z,31.50
2018-08-04T10:54:37.930Z,31.50
2018-08-04T10:59:32.707Z,31.70
2018-08-04T11:02:00.086Z,31.70
2018-08-04T11:04:27.405Z,31.80
2018-08-04T11:06:55.035Z,31.80
2018-08-04T11:09:22.303Z,31.70
2018-08-04T11:11:49.674Z,31.90
2018-08-04T11:14:16.925Z,31.90
2018-08-04T11:16:44.233Z,31.90
2018-08-04T11:19:11.526Z,31.80
2018-08-04T11:21:38.899Z,31.80
2018-08-04T11:24:06.287Z,31.70
2018-08-04T11:26:33.634Z,31.80
2018-08-04T11:29:01.127Z,31.80
2018-08-04T11:31:28.398Z,31.80
2018-08-04T11:33:55.817Z,31.80
2018-08-04T11:36:23.282Z,31.90
2018-08-04T11:38:50.613Z,31.90
2018-08-04T11:41:17.922Z,32.00
2018-08-04T11:43:45.206Z,31.90
2018-08-04T11:46:12.530Z,31.80
2018-08-04T11:48:39.874Z,31.80
2018-08-04T11:51:07.185Z,31.80
2018-08-04T11:53:34.481Z,31.80
2018-08-04T11:56:01.799Z,31.80
2018-08-04T11:58:29.130Z,31.80
2018-08-04T12:00:56.413Z,31.70
2018-08-04T12:03:23.698Z,31.60
2018-08-04T12:05:50.974Z,31.60
2018-08-04T12:08:18.272Z,31.60
2018-08-04T12:10:45.570Z,31.60
2018-08-04T12:13:12.877Z,31.60
2018-08-04T12:15:40.218Z,31.60
2018-08-04T12:18:07.777Z,31.50
2018-08-04T12:20:35.077Z,31.50
2018-08-04T12:25:29.741Z,31.50
2018-08-04T12:27:56.983Z,31.50
2018-08-04T12:30:24.281Z,31.50
2018-08-04T12:32:51.553Z,31.50
2018-08-04T12:35:18.899Z,31.50
2018-08-04T12:37:46.181Z,31.50
2018-08-04T12:40:13.502Z,31.40
2018-08-04T12:42:40.794Z,31.20
2018-08-04T12:45:08.486Z,31.20
2018-08-04T12:47:35.838Z,31.10
2018-08-04T12:50:03.242Z,31.10
2018-08-04T12:52:30.557Z,31.10
2018-08-04T12:54:57.888Z,30.70
2018-08-04T12:57:25.201Z,30.40
2018-08-04T12:59:52.513Z,30.30
2018-08-04T13:02:19.822Z,30.30
2018-08-04T13:04:47.146Z,30.30
2018-08-04T13:07:14.397Z,30.30
2018-08-04T13:09:41.669Z,30.40
2018-08-04T13:12:09.006Z,30.50
2018-08-04T13:14:36.306Z,30.70
2018-08-04T13:17:03.562Z,30.80
2018-08-04T13:19:30.850Z,30.90
2018-08-04T13:21:58.140Z,30.90
2018-08-04T13:24:25.442Z,30.90
2018-08-04T13:26:52.752Z,31.00
2018-08-04T13:29:20.040Z,31.00
2018-08-04T13:34:14.604Z,31.10
2018-08-04T13:36:42.149Z,31.10
2018-08-04T13:39:10.091Z,31.10
2018-08-04T13:41:37.823Z,31.20
2018-08-04T13:44:05.182Z,31.20
2018-08-04T13:46:32.543Z,31.20
2018-08-04T13:53:54.649Z,31.50
2018-08-04T13:58:49.270Z,31.50
2018-08-04T14:01:16.557Z,31.50
2018-08-04T14:03:44.110Z,31.60
2018-08-04T14:06:11.434Z,31.70
2018-08-04T14:08:38.752Z,31.70
2018-08-04T14:13:33.368Z,31.60
2018-08-04T14:16:00.660Z,31.60
2018-08-04T14:18:28.001Z,31.50
2018-08-04T14:20:55.302Z,31.50
2018-08-04T14:23:22.623Z,31.50
2018-08-04T14:25:50.019Z,31.40
2018-08-04T14:28:17.423Z,31.40
2018-08-04T14:30:44.844Z,31.30
2018-08-04T14:33:12.149Z,31.30
2018-08-04T14:35:39.447Z,31.30
2018-08-04T14:38:06.777Z,31.40
2018-08-04T14:40:34.095Z,31.40
2018-08-04T14:43:01.574Z,31.50
2018-08-04T14:47:56.210Z,31.70
2018-08-04T14:50:23.573Z,31.80
2018-08-04T14:52:50.882Z,31.90
2018-08-04T14:55:18.153Z,32.00
2018-08-04T14:57:45.514Z,32.00
2018-08-04T15:00:12.817Z,32.00
2018-08-04T15:02:40.085Z,32.00
2018-08-04T15:05:07.370Z,32.00
2018-08-04T15:07:34.773Z,32.10
2018-08-04T15:10:02.149Z,32.20
2018-08-04T15:12:29.370Z,32.30
2018-08-04T15:14:56.725Z,32.40
2018-08-04T15:17:23.987Z,32.30
2018-08-04T15:19:51.289Z,32.40
2018-08-04T15:22:18.561Z,32.50
2018-08-04T15:27:13.102Z,32.60
2018-08-04T15:29:40.415Z,32.60
2018-08-04T15:32:07.817Z,32.50
2018-08-04T15:34:35.098Z,32.60
2018-08-04T15:37:02.449Z,32.60
2018-08-04T15:41:56.986Z,32.70
2018-08-04T15:44:24.577Z,32.80
2018-08-04T15:46:51.862Z,32.80
2018-08-04T15:49:19.466Z,32.70
2018-08-04T15:51:46.771Z,32.80
2018-08-04T15:54:14.146Z,32.80
2018-08-04T15:56:42.051Z,32.70
2018-08-04T15:59:09.406Z,32.60
2018-08-04T16:01:36.874Z,32.50
2018-08-04T16:04:04.299Z,32.40
2018-08-04T16:06:31.702Z,32.30
2018-08-04T16:08:59.001Z,32.30
2018-08-04T16:11:26.559Z,32.30
2018-08-04T16:13:54.063Z,32.10
2018-08-04T16:16:21.333Z,32.20
2018-08-04T16:18:48.622Z,32.30
2018-08-04T16:21:15.966Z,32.30
2018-08-04T16:23:43.438Z,32.60
2018-08-04T16:26:10.771Z,32.60
2018-08-04T16:28:38.088Z,32.70
2018-08-04T16:31:05.535Z,32.80
2018-08-04T16:33:32.830Z,32.90
2018-08-04T16:38:28.282Z,32.90
2018-08-04T16:40:55.870Z,32.90
2018-08-04T16:43:23.142Z,32.90
2018-08-04T16:45:50.463Z,32.90
2018-08-04T16:48:17.757Z,32.90
2018-08-04T16:50:45.102Z,32.90
2018-08-04T16:53:12.787Z,32.80
2018-08-04T16:55:40.072Z,32.60
2018-08-04T16:58:07.483Z,32.60
2018-08-04T17:00:34.846Z,32.60
2018-08-04T17:03:02.214Z,32.60
2018-08-04T17:05:29.586Z,32.40
2018-08-04T17:07:56.882Z,32.40
2018-08-04T17:10:24.434Z,32.40
2018-08-04T17:12:51.771Z,32.50
2018-08-04T17:15:19.167Z,32.40
2018-08-04T17:17:46.548Z,32.40
2018-08-04T17:20:13.890Z,32.40
2018-08-04T17:22:41.257Z,32.40
2018-08-04T17:25:08.557Z,32.40
2018-08-04T17:27:36.415Z,32.40
2018-08-04T17:30:04.111Z,32.40
2018-08-04T17:32:31.830Z,32.40
2018-08-04T17:34:59.384Z,32.40
2018-08-04T17:39:54.031Z,32.30
2018-08-04T17:42:21.343Z,32.30
2018-08-04T17:44:48.640Z,32.20
2018-08-04T17:49:43.674Z,32.20
2018-08-04T17:52:11.061Z,32.10
2018-08-04T17:57:05.851Z,32.00
2018-08-04T17:59:33.272Z,32.00
2018-08-04T18:02:00.685Z,31.90
2018-08-04T18:04:28.009Z,31.90
2018-08-04T18:06:55.384Z,31.80
2018-08-04T18:09:22.958Z,31.80
2018-08-04T18:11:50.281Z,31.80
2018-08-04T18:14:17.685Z,31.80
2018-08-04T18:16:45.019Z,31.70
2018-08-04T18:19:12.583Z,31.60
2018-08-04T18:21:39.913Z,31.50
2018-08-04T18:24:07.275Z,31.40
2018-08-04T18:26:34.603Z,31.40
2018-08-04T18:29:02.835Z,31.30
2018-08-04T18:31:30.298Z,31.20
2018-08-04T18:33:57.728Z,31.10
2018-08-04T18:36:25.124Z,31.00
2018-08-04T18:38:52.433Z,30.80
2018-08-04T18:41:19.785Z,30.70
2018-08-04T18:43:47.259Z,30.50
2018-08-04T18:46:14.581Z,30.40
2018-08-04T18:48:41.929Z,30.30
2018-08-04T18:51:09.309Z,30.20
2018-08-04T18:56:04.410Z,30.00
2018-08-04T18:58:31.810Z,29.90
2018-08-04T19:00:59.688Z,29.80
2018-08-04T19:03:27.199Z,29.70
2018-08-04T19:05:54.578Z,29.60
2018-08-04T19:08:21.879Z,29.50
2018-08-04T19:10:49.154Z,29.40
2018-08-04T19:13:16.526Z,29.30
2018-08-04T19:15:44.168Z,29.20
2018-08-04T19:18:11.496Z,29.00
2018-08-04T19:20:38.776Z,28.90
2018-08-04T19:23:06.525Z,28.80
2018-08-04T19:25:33.822Z,28.50
2018-08-04T19:28:01.195Z,28.10
2018-08-04T19:30:28.581Z,28.10
2018-08-04T19:32:55.897Z,28.20
2018-08-04T19:35:23.322Z,28.10
2018-08-04T19:37:50.677Z,28.10
2018-08-04T19:40:18.253Z,28.10
2018-08-04T19:42:45.550Z,28.10
2018-08-04T19:45:12.882Z,28.00
2018-08-04T19:47:40.461Z,28.00
2018-08-04T19:50:07.901Z,28.00
2018-08-04T19:52:35.202Z,28.00
2018-08-04T19:55:02.711Z,27.90
2018-08-04T19:59:57.435Z,27.70
2018-08-04T20:02:24.790Z,27.80
2018-08-04T20:04:52.088Z,27.70
2018-08-04T20:07:19.513Z,27.60
2018-08-04T20:09:46.886Z,27.40
2018-08-04T20:12:14.257Z,27.30
2018-08-04T20:14:41.623Z,27.20
2018-08-04T20:17:08.950Z,27.10
2018-08-04T20:19:36.258Z,27.10
2018-08-04T20:22:05.598Z,27.10
2018-08-04T20:24:32.943Z,27.00
2018-08-04T20:27:00.390Z,26.90
2018-08-04T20:29:27.789Z,26.80
2018-08-04T20:31:55.114Z,26.80
2018-08-04T20:34:23.246Z,26.70
2018-08-04T20:36:50.623Z,26.60
2018-08-04T20:41:45.262Z,26.40
2018-08-04T20:44:12.643Z,26.40
2018-08-04T20:46:40.025Z,26.40
2018-08-04T20:49:07.370Z,26.40
2018-08-04T20:51:34.690Z,26.30
2018-08-04T20:54:02.010Z,26.30
2018-08-04T20:58:56.736Z,26.30
2018-08-04T21:01:31.126Z,26.20
2018-08-04T21:03:58.441Z,26.20
2018-08-04T21:06:25.747Z,26.20
2018-08-04T21:08:53.103Z,26.20
2018-08-04T21:11:20.471Z,26.00
2018-08-04T21:13:47.807Z,26.00
2018-08-04T21:21:09.637Z,25.90
2018-08-04T21:23:36.921Z,25.80
2018-08-04T21:26:04.320Z,25.80
2018-08-04T21:28:31.602Z,25.80
2018-08-04T21:33:26.202Z,25.80
2018-08-04T21:35:53.592Z,25.80
2018-08-04T21:38:20.826Z,25.90
2018-08-04T21:40:48.123Z,26.10
2018-08-04T21:43:15.458Z,26.10
2018-08-04T21:45:42.810Z,26.20
2018-08-04T21:48:10.142Z,26.20
2018-08-04T21:50:37.518Z,26.10
2018-08-04T21:53:04.866Z,26.20
2018-08-04T21:55:32.269Z,26.10
2018-08-04T21:57:59.607Z,26.10
2018-08-04T22:00:26.988Z,26.10
2018-08-04T22:02:57.674Z,26.00
2018-08-04T22:05:25.433Z,26.00
2018-08-04T22:08:06.617Z,26.00
2018-08-04T22:10:34.026Z,26.10
2018-08-04T22:13:01.403Z,26.10
2018-08-04T22:15:28.778Z,26.20
2018-08-04T22:17:56.245Z,26.20
2018-08-04T22:20:24.184Z,26.30
2018-08-04T22:22:51.663Z,26.30
2018-08-04T22:25:20.253Z,26.30
2018-08-04T22:27:47.701Z,26.40
2018-08-04T22:30:16.410Z,26.30
2018-08-04T22:32:44.281Z,26.40
2018-08-04T22:35:11.742Z,26.50
2018-08-04T22:37:39.650Z,26.60
2018-08-04T22:40:07.916Z,26.60
2018-08-04T22:42:36.234Z,26.60
2018-08-04T22:45:14.951Z,26.60
2018-08-04T22:47:42.359Z,26.70
2018-08-04T22:50:09.673Z,26.70
2018-08-04T22:52:37.091Z,26.70
2018-08-04T22:55:04.953Z,26.70
2018-08-04T22:57:32.242Z,26.60
2018-08-04T22:59:59.551Z,26.60
2018-08-04T23:02:26.819Z,26.60
2018-08-04T23:04:54.105Z,26.50
2018-08-04T23:07:21.475Z,26.40
2018-08-04T23:09:48.784Z,26.60
2018-08-04T23:12:16.114Z,26.10
2018-08-04T23:14:43.456Z,26.00
2018-08-04T23:17:10.762Z,25.90
2018-08-04T23:19:38.034Z,25.80
2018-08-04T23:22:05.389Z,25.80
2018-08-04T23:24:32.699Z,25.80
2018-08-04T23:27:00.023Z,25.70
2018-08-04T23:29:27.351Z,25.70
2018-08-04T23:31:54.691Z,25.60
2018-08-04T23:34:21.998Z,25.60
2018-08-04T23:36:49.290Z,25.70
2018-08-04T23:39:16.581Z,25.60
2018-08-04T23:41:43.883Z,25.50
2018-08-04T23:44:11.185Z,25.40
2018-08-04T23:46:38.515Z,25.20
2018-08-04T23:49:05.882Z,25.10
2018-08-04T23:51:33.286Z,25.10
2018-08-04T23:54:00.620Z,25.00
2018-08-04T23:58:55.279Z,24.90
